Tolley, North Dakota
Current Conditions -  °F | °C
As of 5:58 AM on Thursday 29 Jan 2015 (Local Time) from KMIB Reporting Station
Overcast Overcast  
Wind Chill: 10°   Ceiling: 1300
Heat Index: 23°   Visibility: 10mi
Dew Point: 22°   Wind: 15mph
Humidity: 98%   Direction: 330°NNW
Pressure: 30.38"   Gusts: NA
Location:  48.73°N, 101.83°W
Report Text: KMIB 291158Z AUTO 33013KT 10SM OVC013 M05/M05 A3038 RMK AO2 SLP319 T10521055 11023 21054 52018 $
Loading
Personal Weather Stations






























Interactive Weather Map New forecast layout! Learn more

10-Day Weather Forecast

Advertisements
Track Severe Weather on mobile